Billings, MT

11:23 AM MDT on May 24, 2015 (GMT -0600)
Downtown Billings | | Change Station
CLOSE
Current Station
Personal Weather Station
Location: Billings, MT
Elevation: 3127 ft
Nearby Weather Stations

Elev 3127 ft 45.78 °N, 108.50 °W | Updated 56 minutes ago

Overcast
Overcast
52.3 °F
Feels Like 52.3 °F
N
6.3
Wind Variable Wind from NNE
Gusts 10.7 mph

Today
High -- | Low -- °F
--% Chance of Precip.
Yesterday
High -- | Low -- °F
Precip. -- in
5:33 AM 8:48 PM
Waxing Crescent, 40% visible
Pressure 30.03 in
Visibility 10.0 miles
Clouds Few 100 ft
Overcast 500 ft
Dew Point 50 °F
Humidity 92%
Rainfall -999.00 in
Snow Depth Not available.
UV 3 out of 12
Pollen 7.00 out of 12
Air Quality Not available.
Flu Activity Sporadic
METAR KBIL 241653Z 03010KT 10SM VCFG FEW001 OVC005 11/09 A3003 RMK AO2 SLP167 VCFG N-E T01060094

More Conditions Fewer Conditions

Pressure 30.03 in
Visibility 10.0 miles
Clouds Few 100 ft
Overcast 500 ft
Dew Point 50 °F
Humidity 92%
Rainfall -999.00 in
Snow Depth Not available.
UV 3 out of 12
Pollen 7.00 out of 12
Air Quality Not available.
Flu Activity Sporadic
METAR KBIL 241653Z 03010KT 10SM VCFG FEW001 OVC005 11/09 A3003 RMK AO2 SLP167 VCFG N-E T01060094

More Conditions Fewer Conditions

10-Day Weather Forecast

Almanac

Astronomy

May. 24, 2015 Rise Set
Actual Time
Civil Twilight
Nautical Twilight
Astronomical Twilight
Moon
Length of Visible Light
Length of Day
Tomorrow will be .
, % of the Moon is Illuminated

Today's Extremes

State Highs State Lows

Community

WunderPhotos

Upload Photos

1,823,804 photos uploaded!

WunderBlogs® & News

Nearby

Air Quality

  Air Quality AQ Index Pollutant
Not available.

Snow Depth

Station Depth Elevation

Earthquake Activity

City Distance Mag. Time & Date
Minimum magnitude displayed is 2.5.

Coastal Water Temperatures

Place Temperature

Stations

Nearby Weather Stations

Station Location Temp. Windchill Dew Point Humidity Wind Precip. Elev Updated Type